Time;durP1;ratioP1;P1;durP2;ratioP2;P2;SDS_P1;SDS_P2;PMS_P1;PMS_P2;Temp;Humidity;BMP_temperature;BMP_pressure;BME280_temperature;BME280_humidity;BME280_pressure;Samples;Min_cycle;Max_cycle;Signal;HPM_P1;HPM_P2
2021/01/09 00:00:08;;;;;;;63.17;31.83;;;;;;;0.97;73.42;98768.40;2160319;82;21323;-78
2021/01/09 00:03:11;;;;;;;60.23;29.93;;;;;;;0.95;73.35;98773.47;2160080;81;21133;-77
2021/01/09 00:06:13;;;;;;;55.00;30.33;;;;;;;0.91;73.38;98770.67;2160228;82;21671;-77
2021/01/09 00:09:14;;;;;;;53.23;28.73;;;;;;;0.84;73.44;98772.44;2160206;82;21249;-78
2021/01/09 00:12:15;;;;;;;58.67;29.40;;;;;;;0.84;73.61;98771.16;2159576;82;21241;-77
2021/01/09 00:15:16;;;;;;;56.60;28.73;;;;;;;0.88;73.60;98771.81;2161063;82;22005;-77
2021/01/09 00:18:18;;;;;;;58.03;29.57;;;;;;;0.89;73.63;98772.29;2161166;82;21562;-77
2021/01/09 00:21:19;;;;;;;57.00;29.23;;;;;;;0.89;73.70;98773.58;2161234;82;21265;-78
2021/01/09 00:24:20;;;;;;;60.10;27.43;;;;;;;0.92;73.80;98773.72;2161091;82;21277;-78
2021/01/09 00:27:21;;;;;;;56.87;28.17;;;;;;;0.93;73.91;98778.05;2161192;82;21260;-78
2021/01/09 00:30:22;;;;;;;56.43;29.43;;;;;;;1.00;74.05;98769.83;2161286;82;21491;-77
2021/01/09 00:33:23;;;;;;;50.60;26.03;;;;;;;1.04;74.09;98772.14;2161060;82;21277;-77
2021/01/09 00:36:27;;;;;;;53.17;27.83;;;;;;;1.06;74.06;98771.41;2161273;82;21293;-77
2021/01/09 00:39:28;;;;;;;56.30;30.53;;;;;;;1.05;73.97;98768.77;2161154;82;21309;-78
2021/01/09 00:42:32;;;;;;;56.53;30.07;;;;;;;1.02;74.11;98770.78;2161424;82;21259;-77
2021/01/09 00:45:33;;;;;;;60.20;32.30;;;;;;;1.03;74.12;98771.27;2161071;82;21238;-78
2021/01/09 00:48:35;;;;;;;66.43;34.13;;;;;;;1.04;74.21;98771.73;2166728;81;21285;-76
2021/01/09 00:51:36;;;;;;;62.70;34.40;;;;;;;1.04;74.28;98774.31;2178632;81;21162;-76
2021/01/09 00:54:37;;;;;;;64.43;35.20;;;;;;;1.06;74.34;98768.84;2178616;81;21113;-77
2021/01/09 00:57:38;;;;;;;67.60;35.13;;;;;;;1.07;74.44;98771.00;2178943;81;21407;-78
2021/01/09 01:00:39;;;;;;;70.67;36.07;;;;;;;1.09;74.48;98771.55;2178847;81;21145;-79
2021/01/09 01:03:42;;;;;;;75.70;39.13;;;;;;;1.13;74.46;98764.47;2179090;81;21141;-79
2021/01/09 01:06:43;;;;;;;76.97;37.97;;;;;;;;;;2178643;81;21539;-78
2021/01/09 01:09:44;;;;;;;71.67;39.53;;;;;;;1.19;74.45;98775.04;2179318;82;21126;-78
2021/01/09 01:12:45;;;;;;;73.40;37.37;;;;;;;1.20;74.49;98776.80;2178637;81;21110;-78
2021/01/09 01:15:46;;;;;;;76.90;39.70;;;;;;;1.17;74.55;98774.48;2178779;81;21142;-78
2021/01/09 01:18:47;;;;;;;73.77;37.60;;;;;;;1.12;74.63;98772.98;2179082;81;21442;-78
2021/01/09 01:21:48;;;;;;;74.13;38.30;;;;;;;1.12;74.85;98772.98;2179061;81;21503;-79
2021/01/09 01:24:49;;;;;;;71.63;37.50;;;;;;;1.11;74.92;98774.20;2178903;81;21137;-79
2021/01/09 01:27:50;;;;;;;67.47;38.50;;;;;;;1.08;75.14;98776.22;2179098;81;21271;-78
2021/01/09 01:30:51;;;;;;;71.07;36.63;;;;;;;1.04;75.18;98774.72;2178797;81;21134;-80
2021/01/09 01:33:53;;;;;;;68.43;37.90;;;;;;;0.99;75.35;98780.92;2178805;81;21162;-78
2021/01/09 01:36:54;;;;;;;64.47;33.13;;;;;;;0.93;75.55;98779.34;2178888;82;21158;-78
2021/01/09 01:39:55;;;;;;;68.70;37.03;;;;;;;0.92;75.62;98780.14;2178620;81;21177;-78
2021/01/09 01:46:33;;;;;;;76.90;38.37;;;;;;;1.10;77.11;98773.31;2178881;82;21010;-82
2021/01/09 01:49:35;;;;;;;72.23;36.80;;;;;;;1.27;75.61;98772.83;2168721;81;21276;-79
2021/01/09 01:52:36;;;;;;;73.63;38.97;;;;;;;1.20;75.30;98772.94;2161099;82;21252;-78
2021/01/09 01:55:37;;;;;;;77.00;41.57;;;;;;;1.13;75.40;98770.89;2161674;82;21249;-82
2021/01/09 01:58:38;;;;;;;78.43;41.43;;;;;;;1.08;75.52;98776.22;2161390;82;21300;-78
2021/01/09 02:01:42;;;;;;;80.53;41.93;;;;;;;1.08;75.66;98772.36;2161278;82;21146;-80
2021/01/09 02:04:43;;;;;;;71.07;38.20;;;;;;;1.06;75.58;98775.27;2161348;82;21531;-79
2021/01/09 02:07:44;;;;;;;68.60;35.40;;;;;;;0.97;75.67;98776.11;2161213;82;21547;-79
2021/01/09 02:10:46;;;;;;;76.47;41.10;;;;;;;0.95;75.85;98773.87;2161313;82;21272;-81
2021/01/09 02:13:47;;;;;;;79.13;41.37;;;;;;;0.94;75.94;98774.67;2161323;82;21324;-79
2021/01/09 02:16:48;;;;;;;70.70;39.13;;;;;;;0.95;75.91;98773.87;2161522;82;21123;-80
2021/01/09 02:19:50;;;;;;;75.13;38.37;;;;;;;1.00;76.00;98774.09;2161244;82;21169;-80
2021/01/09 02:22:54;;;;;;;73.77;39.00;;;;;;;0.97;76.01;98776.11;2161098;82;21253;-80
2021/01/09 02:25:54;;;;;;;74.20;38.17;;;;;;;0.89;76.24;98774.86;2161799;81;21285;-79
2021/01/09 02:28:57;;;;;;;65.77;34.67;;;;;;;0.81;76.38;98774.86;2161975;82;21127;-80
2021/01/09 02:31:58;;;;;;;80.33;43.13;;;;;;;0.82;76.76;98775.34;2161629;82;21146;-79
2021/01/09 02:34:59;;;;;;;77.23;44.87;;;;;;;0.80;76.49;98779.52;2161590;82;21142;-78
2021/01/09 02:38:00;;;;;;;79.67;42.60;;;;;;;0.80;76.55;98782.09;2161684;82;21111;-79
2021/01/09 02:41:01;;;;;;;69.53;35.87;;;;;;;0.77;76.72;98778.09;2161331;82;21268;-79
2021/01/09 02:44:03;;;;;;;62.20;36.83;;;;;;;0.77;76.84;98776.80;2160958;82;21131;-78
2021/01/09 02:47:04;;;;;;;72.47;41.10;;;;;;;0.75;76.96;98779.30;2160846;82;21546;-80
2021/01/09 02:50:05;;;;;;;71.60;39.00;;;;;;;0.81;76.97;98783.85;2160816;82;21791;-80
2021/01/09 02:53:06;;;;;;;73.13;41.10;;;;;;;0.87;77.10;98789.32;2161051;82;21127;-81
2021/01/09 02:56:07;;;;;;;70.87;40.40;;;;;;;0.97;77.50;98791.94;2162068;82;21257;-80
2021/01/09 02:59:10;;;;;;;65.97;34.97;;;;;;;1.02;77.04;98791.75;2160898;82;21162;-80
2021/01/09 03:02:12;;;;;;;69.30;38.33;;;;;;;1.02;76.96;98787.49;2161336;82;21277;-80
2021/01/09 03:05:17;;;;;;;62.80;36.03;;;;;;;1.03;76.82;98786.69;2161340;82;21133;-79
2021/01/09 03:08:19;;;;;;;65.10;36.17;;;;;;;1.02;77.02;98787.90;2161527;82;21146;-80
2021/01/09 03:11:23;;;;;;;60.53;35.87;;;;;;;0.94;77.03;98784.55;2161587;82;21245;-80
2021/01/09 03:14:24;;;;;;;69.87;40.97;;;;;;;0.84;77.05;98781.44;2161505;82;21544;-80
2021/01/09 03:17:25;;;;;;;59.07;32.57;;;;;;;0.80;77.11;98782.09;2161537;82;21416;-79
2021/01/09 03:20:26;;;;;;;62.50;36.93;;;;;;;0.77;77.43;98775.52;2161777;82;21247;-80
2021/01/09 03:23:28;;;;;;;60.63;34.53;;;;;;;0.72;77.29;98780.43;2161507;82;21261;-80
2021/01/09 03:26:30;;;;;;;52.80;32.20;;;;;;;0.74;77.48;98780.50;2161036;82;21126;-79
2021/01/09 03:29:31;;;;;;;63.53;36.23;;;;;;;0.69;78.00;98778.99;2160520;82;21245;-79
2021/01/09 03:32:33;;;;;;;57.97;34.57;;;;;;;0.66;77.75;98771.14;2160789;82;21859;-80
2021/01/09 03:35:34;;;;;;;55.67;33.20;;;;;;;0.68;77.80;98786.22;2160531;82;21236;-78
2021/01/09 03:38:35;;;;;;;57.77;33.43;;;;;;;0.70;77.80;98781.16;2160495;82;21174;-78
2021/01/09 03:41:37;;;;;;;53.53;32.57;;;;;;;0.73;77.82;98788.62;2159868;82;21197;-80
2021/01/09 03:44:38;;;;;;;55.90;34.23;;;;;;;0.73;77.92;98787.33;2160391;82;21425;-80
2021/01/09 03:47:39;;;;;;;68.60;36.97;;;;;;;0.73;77.84;98789.02;2160671;82;21257;-80
2021/01/09 03:50:41;;;;;;;59.63;35.13;;;;;;;0.72;77.92;98785.97;2160929;81;21292;-81
2021/01/09 03:53:42;;;;;;;59.93;33.53;;;;;;;0.74;77.89;98797.20;2160875;82;21134;-79
2021/01/09 03:56:43;;;;;;;62.97;35.00;;;;;;;0.77;77.86;98798.64;2161060;82;21110;-81
2021/01/09 03:59:44;;;;;;;63.97;36.37;;;;;;;0.80;77.84;98794.94;2161178;82;21292;-80
2021/01/09 04:02:45;;;;;;;62.67;38.03;;;;;;;0.87;77.89;98795.34;2161121;82;21135;-79
2021/01/09 04:05:46;;;;;;;62.90;38.73;;;;;;;0.92;77.78;98795.56;2161539;82;21257;-81
2021/01/09 04:08:50;;;;;;;62.10;34.63;;;;;;;1.03;77.82;98802.11;2161539;82;21107;-79
2021/01/09 04:11:51;;;;;;;62.07;35.87;;;;;;;1.09;77.61;98803.69;2160745;82;21420;-81
2021/01/09 04:14:52;;;;;;;56.37;35.50;;;;;;;1.13;77.52;98806.00;2161103;82;21257;-79
2021/01/09 04:17:53;;;;;;;51.23;31.73;;;;;;;1.20;77.42;98800.34;2161537;82;21264;-80
2021/01/09 04:20:54;;;;;;;58.97;36.17;;;;;;;1.22;77.21;98813.75;2161532;82;21289;-80
2021/01/09 04:23:55;;;;;;;58.23;36.27;;;;;;;1.13;77.04;98808.58;2161093;82;21264;-79
2021/01/09 04:26:56;;;;;;;56.80;34.00;;;;;;;1.07;77.05;98814.70;2161294;82;21301;-80
2021/01/09 04:29:57;;;;;;;56.63;34.13;;;;;;;1.00;77.18;98818.67;2161277;82;21245;-80
2021/01/09 04:32:59;;;;;;;57.23;34.77;;;;;;;0.97;77.26;98818.52;2161300;82;21163;-80
2021/01/09 04:36:00;;;;;;;59.07;35.47;;;;;;;0.94;77.29;98816.68;2161023;82;21261;-78
2021/01/09 04:39:01;;;;;;;57.33;34.63;;;;;;;0.89;77.36;98818.14;2160776;82;21305;-79
2021/01/09 04:42:02;;;;;;;60.80;34.53;;;;;;;0.85;77.43;98819.17;2160567;82;21595;-78
2021/01/09 04:45:03;;;;;;;57.90;33.63;;;;;;;0.81;77.40;98823.68;2159580;82;21276;-78
2021/01/09 04:48:04;;;;;;;56.07;33.47;;;;;;;0.76;77.46;98830.28;2159578;82;21236;-79
2021/01/09 04:51:05;;;;;;;57.10;32.07;;;;;;;0.72;77.55;98834.78;2167298;81;21492;-79
2021/01/09 04:54:06;;;;;;;58.87;34.80;;;;;;;0.70;77.72;98833.83;2169158;82;21134;-79
2021/01/09 04:57:07;;;;;;;60.50;35.80;;;;;;;0.70;77.74;98833.83;2169332;82;21158;-79
2021/01/09 05:00:09;;;;;;;60.27;35.50;;;;;;;0.69;77.83;98832.06;2169171;82;21292;-80
2021/01/09 05:03:10;;;;;;;62.70;35.40;;;;;;;0.70;77.83;98838.56;2169267;82;21272;-77
2021/01/09 05:06:11;;;;;;;64.40;35.27;;;;;;;0.72;77.52;98846.34;2169572;82;21268;-77
2021/01/09 05:09:12;;;;;;;52.77;31.90;;;;;;;0.69;77.49;98846.19;2168597;82;21249;-79
2021/01/09 05:12:13;;;;;;;61.03;35.37;;;;;;;0.68;77.49;98848.28;2169283;82;21237;-78
2021/01/09 05:15:14;;;;;;;60.23;33.60;;;;;;;0.70;77.52;98852.69;2169235;82;21130;-78
2021/01/09 05:18:15;;;;;;;57.70;32.67;;;;;;;0.72;77.55;98856.63;2169306;82;21846;-78
2021/01/09 05:21:16;;;;;;;61.17;35.23;;;;;;;0.71;77.57;98854.45;2169070;82;21256;-79
2021/01/09 05:24:17;;;;;;;67.77;36.17;;;;;;;0.74;77.55;98857.58;2168773;82;21237;-78
2021/01/09 05:27:18;;;;;;;67.20;35.03;;;;;;;0.74;77.46;98858.47;2169465;82;21200;-79
2021/01/09 05:30:19;;;;;;;66.23;35.20;;;;;;;0.74;77.49;98862.31;2169839;82;21307;-80
2021/01/09 05:33:20;;;;;;;75.60;38.70;;;;;;;0.78;77.49;98864.64;2170221;82;21229;-80
2021/01/09 05:36:21;;;;;;;73.83;37.57;;;;;;;0.79;77.41;98867.28;2169795;82;21115;-79
2021/01/09 05:39:22;;;;;;;72.53;36.87;;;;;;;0.81;77.45;98864.39;2169834;82;21138;-79
2021/01/09 05:42:24;;;;;;;78.87;39.77;;;;;;;0.82;77.41;98867.84;2170233;82;21413;-80
2021/01/09 05:45:25;;;;;;;78.10;39.43;;;;;;;0.83;77.46;98874.74;2170080;82;21137;-78
2021/01/09 05:48:26;;;;;;;73.17;39.10;;;;;;;0.88;77.34;98882.31;2170210;82;21522;-79
2021/01/09 05:51:27;;;;;;;79.13;42.23;;;;;;;0.84;77.37;98881.65;2142820;82;21283;-79
2021/01/09 05:54:28;;;;;;;71.33;38.03;;;;;;;0.83;77.27;98886.31;2172740;81;21400;-80
2021/01/09 05:57:29;;;;;;;65.03;36.03;;;;;;;0.82;77.33;98888.40;2172539;82;21617;-79
2021/01/09 06:00:30;;;;;;;67.23;38.10;;;;;;;0.80;77.39;98890.01;2172560;82;21336;-80
2021/01/09 06:03:32;;;;;;;64.87;38.60;;;;;;;0.76;77.38;98889.38;2172769;82;21264;-79
2021/01/09 06:06:33;;;;;;;73.53;43.67;;;;;;;0.77;77.53;98894.59;2173205;82;21126;-81
2021/01/09 06:09:35;;;;;;;80.23;43.27;;;;;;;0.76;77.43;98894.11;2172648;82;21241;-80
2021/01/09 06:12:36;;;;;;;86.70;47.80;;;;;;;0.76;77.49;98895.80;2172823;82;21276;-80
2021/01/09 06:15:37;;;;;;;78.40;42.60;;;;;;;0.80;77.51;98893.86;2172868;82;21251;-81
2021/01/09 06:18:38;;;;;;;68.90;38.80;;;;;;;0.75;77.33;98900.45;2172238;82;21261;-81
2021/01/09 06:21:39;;;;;;;69.77;40.40;;;;;;;0.70;77.53;98899.34;2172874;82;21809;-80
2021/01/09 06:24:40;;;;;;;75.13;43.33;;;;;;;0.69;77.55;98903.59;2173278;82;21244;-81
2021/01/09 06:27:42;;;;;;;68.57;39.83;;;;;;;0.70;77.54;98909.62;2173726;82;21262;-81
2021/01/09 06:30:43;;;;;;;64.77;37.50;;;;;;;0.71;77.70;98913.95;2173560;82;21393;-80
2021/01/09 06:33:44;;;;;;;43.70;26.43;;;;;;;0.72;77.63;98920.85;2173620;82;21253;-80
2021/01/09 06:36:45;;;;;;;88.67;46.77;;;;;;;0.74;77.70;98917.96;2172424;82;21122;-79
2021/01/09 06:39:46;;;;;;;112.97;56.63;;;;;;;0.75;77.68;98923.18;2172393;82;21162;-82
2021/01/09 06:42:47;;;;;;;57.20;31.07;;;;;;;0.76;77.69;98918.92;2172042;82;21264;-82
2021/01/09 06:45:48;;;;;;;70.03;38.30;;;;;;;0.85;80.89;98925.81;2172331;81;21252;-78
2021/01/09 06:48:49;;;;;;;76.10;37.97;;;;;;;2.95;79.58;98929.39;2171566;82;21277;-81
2021/01/09 06:51:51;;;;;;;72.83;39.20;;;;;;;2.49;74.82;98929.05;2160044;81;21285;-79
2021/01/09 06:54:53;;;;;;;69.90;36.03;;;;;;;1.98;75.38;98931.41;2159511;82;21281;-81
2021/01/09 06:57:54;;;;;;;62.90;34.63;;;;;;;1.72;75.45;98937.88;2160361;82;21277;-81
2021/01/09 07:00:55;;;;;;;73.70;39.70;;;;;;;1.42;75.83;98943.30;2160890;82;21159;-80
2021/01/09 07:03:56;;;;;;;63.80;36.90;;;;;;;1.23;76.20;98941.52;2160278;82;21126;-79
2021/01/09 07:06:57;;;;;;;79.80;43.20;;;;;;;1.18;76.56;98937.83;2159736;82;21127;-79
2021/01/09 07:09:58;;;;;;;91.17;46.03;;;;;;;1.13;76.81;98939.69;2159730;82;21246;-80
2021/01/09 07:12:59;;;;;;;74.67;39.50;;;;;;;1.16;76.89;98942.41;2160020;82;21265;-79
2021/01/09 07:16:01;;;;;;;67.03;37.73;;;;;;;1.15;76.89;98945.80;2159810;82;21531;-81
2021/01/09 07:19:02;;;;;;;69.87;40.20;;;;;;;1.18;77.03;98953.25;2160162;82;21620;-80
2021/01/09 07:22:03;;;;;;;77.63;42.23;;;;;;;1.24;77.00;98956.13;2160124;82;21610;-79
2021/01/09 07:25:04;;;;;;;68.60;37.43;;;;;;;1.34;77.01;98957.87;2160070;82;21317;-79
2021/01/09 07:28:05;;;;;;;63.27;36.47;;;;;;;1.35;76.80;98954.50;2160498;82;21249;-79
2021/01/09 07:31:06;;;;;;;56.73;33.57;;;;;;;1.40;76.72;98965.89;2160195;82;21241;-79
2021/01/09 07:34:07;;;;;;;50.80;31.63;;;;;;;1.40;76.52;98966.78;2160228;82;21548;-79
2021/01/09 07:37:08;;;;;;;58.27;34.23;;;;;;;1.41;76.52;98970.23;2160360;82;21273;-78
2021/01/09 07:40:09;;;;;;;51.60;30.73;;;;;;;1.43;76.54;98981.48;2160216;82;21289;-76
2021/01/09 07:43:10;;;;;;;58.60;32.77;;;;;;;1.48;76.57;98986.05;2160306;82;21253;-76
2021/01/09 07:46:11;;;;;;;53.27;29.43;;;;;;;1.54;76.56;98985.46;2160504;82;21127;-76
2021/01/09 07:49:12;;;;;;;52.17;30.50;;;;;;;1.49;76.12;98989.50;2159181;82;21265;-76
2021/01/09 07:52:14;;;;;;;58.57;33.20;;;;;;;1.45;76.29;98992.73;2175967;81;21149;-78
2021/01/09 07:55:15;;;;;;;53.83;31.93;;;;;;;1.48;76.41;98993.77;2178099;81;21228;-78
2021/01/09 07:58:17;;;;;;;56.97;31.60;;;;;;;1.52;76.36;99000.83;2177636;82;21220;-78
2021/01/09 08:01:18;;;;;;;60.30;33.67;;;;;;;1.55;76.27;98997.12;2177661;81;21148;-79
2021/01/09 08:04:19;;;;;;;49.37;29.97;;;;;;;1.61;76.27;99000.39;2177571;81;21276;-80
2021/01/09 08:07:20;;;;;;;46.37;29.70;;;;;;;1.66;76.08;99001.50;2177546;81;21622;-78
2021/01/09 08:10:21;;;;;;;52.03;32.57;;;;;;;1.64;75.97;99000.55;2177269;81;21251;-78
2021/01/09 08:13:22;;;;;;;61.07;34.23;;;;;;;1.65;75.88;98999.73;2177652;81;21137;-79
2021/01/09 08:16:24;;;;;;;58.73;32.47;;;;;;;1.67;75.98;99001.98;2177288;81;21257;-79
2021/01/09 08:19:26;;;;;;;56.70;30.90;;;;;;;1.71;75.89;99010.33;2178334;81;21308;-80
2021/01/09 08:22:27;;;;;;;52.30;30.40;;;;;;;1.67;75.73;99007.53;2177467;81;21268;-78
2021/01/09 08:25:28;;;;;;;62.33;30.90;;;;;;;1.60;75.72;99009.80;2177620;81;21261;-80
2021/01/09 08:28:29;;;;;;;51.20;28.83;;;;;;;1.59;75.86;99008.44;2178348;81;21252;-85
2021/01/09 08:31:32;;;;;;;61.07;34.93;;;;;;;1.61;75.91;99002.97;2178144;81;21519;-81
2021/01/09 08:34:33;;;;;;;63.13;33.73;;;;;;;1.59;75.87;99004.17;2177785;81;21138;-81
2021/01/09 08:37:34;;;;;;;168.63;104.37;;;;;;;1.59;75.82;99009.73;2177332;81;21138;-81
2021/01/09 08:40:36;;;;;;;54.07;31.17;;;;;;;1.58;75.96;99015.28;2178263;81;21304;-79
2021/01/09 08:43:37;;;;;;;51.53;28.03;;;;;;;1.62;76.07;99012.45;2178207;81;21149;-81
2021/01/09 08:46:38;;;;;;;45.57;26.87;;;;;;;1.65;75.77;99012.60;2177807;82;21125;-82
2021/01/09 08:49:39;;;;;;;61.53;34.40;;;;;;;1.67;75.80;99017.42;2178072;81;21411;-81
2021/01/09 08:52:40;;;;;;;59.23;32.80;;;;;;;1.64;75.80;99017.27;2177426;81;21260;-81
2021/01/09 08:55:44;;;;;;;46.60;24.73;;;;;;;1.66;75.96;99020.80;2178433;81;21129;-81
2021/01/09 08:58:45;;;;;;;52.03;30.13;;;;;;;1.61;75.89;99024.84;2179099;81;21551;-81
2021/01/09 09:01:46;;;;;;;49.03;28.07;;;;;;;1.67;76.05;99027.72;2177761;81;21404;-80
2021/01/09 09:04:48;;;;;;;52.27;30.73;;;;;;;1.80;76.04;99026.66;2178497;81;21265;-81
2021/01/09 09:07:49;;;;;;;47.10;28.13;;;;;;;1.87;75.85;99029.61;2178178;81;21153;-81
2021/01/09 09:10:50;;;;;;;39.87;24.50;;;;;;;1.89;75.75;99021.55;2177777;81;21134;-81
2021/01/09 09:13:51;;;;;;;51.20;26.90;;;;;;;1.82;75.80;99025.05;2178582;81;21145;-80
2021/01/09 09:16:52;;;;;;;49.47;29.03;;;;;;;1.80;75.95;99022.80;2178085;81;21114;-80
2021/01/09 09:19:53;;;;;;;45.27;26.43;;;;;;;1.85;76.06;99027.36;2178453;81;21177;-80
2021/01/09 09:22:54;;;;;;;48.47;26.67;;;;;;;1.93;75.95;99026.85;2177771;81;21296;-81
2021/01/09 09:25:55;;;;;;;51.13;28.27;;;;;;;1.91;75.84;99026.78;2177961;82;21241;-80
2021/01/09 09:28:59;;;;;;;51.83;28.67;;;;;;;1.80;76.07;99023.69;2177322;82;21134;-80
2021/01/09 09:32:00;;;;;;;52.37;27.20;;;;;;;1.77;76.18;99023.53;2178536;82;21554;-80
2021/01/09 09:35:01;;;;;;;65.10;39.23;;;;;;;1.84;76.22;99019.56;2178214;82;21142;-79
2021/01/09 09:38:02;;;;;;;60.50;32.43;;;;;;;1.96;76.36;99016.30;2177578;81;21166;-80
2021/01/09 09:41:05;;;;;;;54.63;32.37;;;;;;;2.04;76.02;99011.52;2177907;81;21320;-82
2021/01/09 09:44:06;;;;;;;67.43;37.90;;;;;;;2.05;75.69;99013.28;2178443;82;21161;-81
2021/01/09 09:47:07;;;;;;;54.27;31.80;;;;;;;1.97;75.72;99007.77;2178478;81;21134;-81
2021/01/09 09:50:08;;;;;;;52.47;31.97;;;;;;;1.97;75.79;99006.48;2177616;81;21268;-80
2021/01/09 09:53:09;;;;;;;68.60;36.10;;;;;;;1.89;75.50;99011.66;2161675;82;21249;-80
2021/01/09 09:56:11;;;;;;;69.30;37.77;;;;;;;1.82;75.69;99016.92;2161342;82;21269;-80
2021/01/09 09:59:12;;;;;;;82.63;42.73;;;;;;;1.78;75.95;99017.58;2160970;82;21333;-78
2021/01/09 10:02:13;;;;;;;91.17;48.03;;;;;;;1.74;75.95;99011.80;2160720;82;21245;-77
2021/01/09 10:05:14;;;;;;;80.70;41.23;;;;;;;1.73;76.02;99011.69;2160908;82;21257;-80
2021/01/09 10:08:15;;;;;;;80.37;41.83;;;;;;;1.71;76.09;99009.45;2160596;82;21277;-78
2021/01/09 10:11:16;;;;;;;73.67;39.80;;;;;;;1.69;76.28;99013.64;2160860;82;21515;-79
2021/01/09 10:14:18;;;;;;;68.87;36.53;;;;;;;1.70;76.44;99012.42;2160937;82;21574;-78
2021/01/09 10:17:19;;;;;;;71.63;37.40;;;;;;;1.72;76.52;99003.49;2160321;82;21245;-79
2021/01/09 10:20:20;;;;;;;71.83;35.87;;;;;;;1.75;76.40;99004.56;2160266;82;21150;-80
2021/01/09 10:23:21;;;;;;;62.00;33.00;;;;;;;1.69;76.27;99002.94;2161085;82;21249;-79
2021/01/09 10:26:22;;;;;;;65.03;37.10;;;;;;;1.66;76.56;99009.63;2160531;82;21832;-80
2021/01/09 10:29:23;;;;;;;64.47;35.07;;;;;;;1.60;76.70;99003.77;2160264;82;21257;-80
2021/01/09 10:32:24;;;;;;;49.30;31.43;;;;;;;1.62;76.75;99007.30;2159655;82;21284;-78
2021/01/09 10:35:25;;;;;;;50.33;29.80;;;;;;;1.68;76.62;99002.46;2159887;82;21543;-78
2021/01/09 10:38:26;;;;;;;51.07;31.60;;;;;;;1.66;76.46;98998.93;2159850;82;21277;-79
2021/01/09 10:41:28;;;;;;;53.67;31.60;;;;;;;1.63;76.83;99003.92;2159594;82;21413;-78
2021/01/09 10:44:29;;;;;;;53.57;30.83;;;;;;;1.59;76.93;99002.89;2160105;82;21257;-79
2021/01/09 10:47:30;;;;;;;58.60;33.60;;;;;;;1.58;76.85;99004.98;2160498;82;21258;-78
2021/01/09 10:50:31;;;;;;;59.50;32.67;;;;;;;1.58;76.94;99012.70;2162684;81;21339;-79
2021/01/09 10:53:32;;;;;;;47.73;27.43;;;;;;;1.55;77.08;99005.23;2177458;81;21094;-79
2021/01/09 10:56:33;;;;;;;60.90;34.57;;;;;;;1.55;77.12;99005.23;2176811;81;21821;-77
2021/01/09 10:59:34;;;;;;;57.10;33.37;;;;;;;1.53;77.20;99005.56;2178573;81;21166;-78
2021/01/09 11:02:36;;;;;;;57.93;31.37;;;;;;;1.54;77.21;99009.91;2178029;81;21256;-78
2021/01/09 11:05:37;;;;;;;69.83;39.40;;;;;;;1.60;77.22;99011.50;2176702;81;21279;-77
2021/01/09 11:08:38;;;;;;;64.70;35.10;;;;;;;1.59;77.11;99005.87;2175912;81;21598;-79
2021/01/09 11:11:39;;;;;;;70.30;37.83;;;;;;;1.65;77.20;99007.86;2177877;81;21268;-78
2021/01/09 11:14:40;;;;;;;70.30;36.00;;;;;;;1.73;76.92;99002.69;2177064;81;21260;-81
2021/01/09 11:17:41;;;;;;;71.90;38.93;;;;;;;1.79;76.86;99001.33;2178339;81;21137;-78
2021/01/09 11:20:42;;;;;;;71.10;41.80;;;;;;;1.84;76.74;99003.72;2178177;81;21292;-80
2021/01/09 11:23:43;;;;;;;55.90;32.47;;;;;;;1.85;76.74;99007.17;2178337;81;21428;-81
2021/01/09 11:26:44;;;;;;;55.37;31.53;;;;;;;1.84;76.71;99007.58;2178820;81;21220;-80
2021/01/09 11:29:47;;;;;;;62.80;33.30;;;;;;;1.88;76.64;99011.19;2178309;81;21166;-79
2021/01/09 11:32:48;;;;;;;61.03;34.80;;;;;;;1.81;76.50;99016.44;2177954;81;21260;-79
2021/01/09 11:35:50;;;;;;;50.50;29.93;;;;;;;1.80;76.68;99019.82;2178174;81;21133;-78
2021/01/09 11:38:51;;;;;;;53.73;30.67;;;;;;;1.80;76.64;99012.09;2177842;81;21174;-78
2021/01/09 11:41:52;;;;;;;51.63;30.30;;;;;;;1.74;76.74;99013.09;2177607;81;21153;-79
2021/01/09 11:44:54;;;;;;;41.60;24.17;;;;;;;1.77;76.98;99019.67;2178714;81;21154;-79
2021/01/09 11:47:55;;;;;;;57.33;31.93;;;;;;;1.75;76.85;99012.69;2177972;81;21161;-79
2021/01/09 11:50:56;;;;;;;53.43;29.07;;;;;;;1.75;77.00;99016.14;2175179;81;21162;-79
2021/01/09 11:53:57;;;;;;;58.70;31.67;;;;;;;1.80;76.81;99023.69;2161619;82;21289;-79
2021/01/09 11:57:00;;;;;;;60.03;32.23;;;;;;;1.81;76.40;99013.87;2160897;82;21126;-79
2021/01/09 12:00:01;;;;;;;61.83;33.27;;;;;;;1.77;76.65;99018.38;2161350;82;21300;-79
2021/01/09 12:03:02;;;;;;;61.60;32.37;;;;;;;1.77;76.48;99019.67;2160922;82;21319;-78
2021/01/09 12:06:03;;;;;;;58.80;30.33;;;;;;;1.75;76.58;99021.29;2160801;82;21520;-80
2021/01/09 12:09:04;;;;;;;54.33;30.83;;;;;;;1.69;76.71;99015.80;2160556;82;21249;-80
2021/01/09 12:12:05;;;;;;;45.17;24.77;;;;;;;1.66;76.93;99021.20;2161225;82;21253;-79
2021/01/09 12:15:06;;;;;;;50.57;27.47;;;;;;;1.59;77.08;99016.16;2161173;82;21261;-79
2021/01/09 12:18:07;;;;;;;53.40;28.67;;;;;;;1.58;77.17;99018.25;2161555;82;21257;-80
2021/01/09 12:21:09;;;;;;;50.70;27.93;;;;;;;1.58;77.28;99017.84;2160788;82;21559;-80
2021/01/09 12:24:10;;;;;;;47.57;27.57;;;;;;;1.59;77.32;99026.45;2160608;82;21257;-79
2021/01/09 12:27:11;;;;;;;52.37;27.53;;;;;;;1.53;77.34;99027.44;2160740;82;21274;-79
2021/01/09 12:30:13;;;;;;;48.23;26.57;;;;;;;1.53;77.48;99026.14;2160567;82;21579;-79
2021/01/09 12:33:14;;;;;;;50.00;28.93;;;;;;;1.53;77.53;99028.72;2160008;82;21548;-78
2021/01/09 12:36:15;;;;;;;58.03;33.47;;;;;;;1.56;77.40;99023.73;2159931;82;21245;-79
2021/01/09 12:39:17;;;;;;;53.60;30.97;;;;;;;1.62;77.40;99030.47;2160906;82;21447;-79
2021/01/09 12:42:18;;;;;;;55.70;28.23;;;;;;;1.57;77.39;99032.81;2160658;82;21135;-80
2021/01/09 12:45:19;;;;;;;52.63;28.40;;;;;;;1.55;77.45;99029.68;2160764;82;21242;-80
2021/01/09 12:48:20;;;;;;;53.93;29.50;;;;;;;1.48;77.67;99034.92;2161107;82;21265;-79
2021/01/09 12:51:21;;;;;;;59.17;31.83;;;;;;;1.45;77.61;99036.05;2160792;81;21316;-79
2021/01/09 12:54:22;;;;;;;57.93;31.83;;;;;;;1.44;77.80;99038.55;2161161;82;21260;-79
2021/01/09 12:57:23;;;;;;;53.77;28.87;;;;;;;1.41;77.82;99037.99;2161476;82;21123;-80
2021/01/09 13:00:24;;;;;;;45.13;27.10;;;;;;;1.42;77.92;99037.59;2161013;82;21277;-79
2021/01/09 13:03:26;;;;;;;43.80;25.37;;;;;;;1.39;78.07;99042.58;2159572;82;21250;-80
2021/01/09 13:06:27;;;;;;;43.87;26.60;;;;;;;1.35;78.00;99036.80;2158147;82;21296;-78
2021/01/09 13:09:29;;;;;;;59.10;29.13;;;;;;;1.32;78.16;99036.64;2159906;82;21274;-79
2021/01/09 13:12:30;;;;;;;60.87;29.60;;;;;;;1.24;78.30;99039.70;2160589;82;21245;-79
2021/01/09 13:15:31;;;;;;;59.93;28.93;;;;;;;1.19;78.37;99038.59;2161389;82;21269;-79
2021/01/09 13:18:33;;;;;;;49.33;27.53;;;;;;;1.20;78.33;99042.92;2160914;82;21587;-79
2021/01/09 13:21:34;;;;;;;49.57;26.27;;;;;;;1.24;78.43;99038.42;2161242;82;21257;-79
2021/01/09 13:24:36;;;;;;;42.27;25.17;;;;;;;1.23;78.43;99044.77;2161331;82;21262;-79
2021/01/09 13:27:37;;;;;;;41.67;24.77;;;;;;;1.17;78.28;99045.34;2162127;82;21134;-79
2021/01/09 13:30:38;;;;;;;42.47;23.73;;;;;;;1.12;78.17;99054.50;2161593;82;21107;-80
2021/01/09 13:33:39;;;;;;;47.63;25.07;;;;;;;1.07;78.31;99055.95;2161265;82;21551;-79
2021/01/09 13:36:40;;;;;;;54.43;27.07;;;;;;;1.05;78.35;99066.55;2161835;82;21134;-79
2021/01/09 13:39:44;;;;;;;53.47;24.73;;;;;;;1.05;78.34;99066.95;2161724;82;21304;-78
2021/01/09 13:42:46;;;;;;;66.23;29.17;;;;;;;1.06;78.36;99072.18;2161779;82;21250;-79
2021/01/09 14:24:32;;;;;;;35.87;22.57;;;;;;;0.54;79.65;99105.73;2210580;79;23074;-78
2021/01/09 14:27:33;;;;;;;30.67;20.17;;;;;;;0.46;79.54;99114.69;2177971;81;21149;-78
2021/01/09 14:30:34;;;;;;;39.00;21.80;;;;;;;0.44;79.65;99118.45;2178867;82;21127;-78
2021/01/09 14:33:35;;;;;;;35.97;20.90;;;;;;;0.40;79.58;99119.09;2179326;82;21153;-82
2021/01/09 14:36:36;;;;;;;37.47;22.63;;;;;;;0.42;79.48;99120.06;2179145;82;21106;-80
2021/01/09 14:39:38;;;;;;;33.63;21.63;;;;;;;0.42;79.44;99123.02;2179410;82;21146;-79
2021/01/09 14:42:39;;;;;;;31.43;19.67;;;;;;;0.41;79.22;99122.54;2179137;82;21239;-79
2021/01/09 14:45:40;;;;;;;33.07;19.83;;;;;;;0.41;79.27;99130.24;2179120;81;21145;-79